createdAt,value
2022-10-31T00:01:25.056Z,48.7
2022-10-31T00:06:27.159Z,54.4
2022-10-31T00:11:29.437Z,48.4
2022-10-31T00:16:31.568Z,50.6
2022-10-31T00:21:33.583Z,48.5
2022-10-31T00:26:36.060Z,47.2
2022-10-31T00:31:37.893Z,46.2
2022-10-31T00:36:39.893Z,49
2022-10-31T00:41:42.021Z,46.2
2022-10-31T00:46:44.188Z,47
2022-10-31T00:51:46.070Z,45.2
2022-10-31T00:56:48.328Z,39.8
2022-10-31T01:01:50.918Z,35.4
2022-10-31T01:06:53.708Z,35.1
2022-10-31T01:11:55.897Z,35.2
2022-10-31T01:16:57.885Z,36.1
2022-10-31T01:21:59.919Z,34.4
2022-10-31T01:27:01.893Z,32.6
2022-10-31T01:32:03.842Z,36.8
2022-10-31T01:37:05.828Z,37.1
2022-10-31T01:42:09.136Z,38.6
2022-10-31T01:47:11.330Z,40.2
2022-10-31T01:52:13.291Z,42.5
2022-10-31T01:57:15.461Z,39.2
2022-10-31T02:02:18.276Z,44.1
2022-10-31T02:07:20.943Z,42.2
2022-10-31T02:12:22.857Z,43.7
2022-10-31T02:17:24.899Z,42.3
2022-10-31T02:22:26.825Z,41
2022-10-31T02:27:28.770Z,40
2022-10-31T02:32:30.646Z,40
2022-10-31T02:37:32.770Z,41.2
2022-10-31T02:42:35.159Z,39
2022-10-31T02:47:37.110Z,38.7
2022-10-31T02:52:39.274Z,40.9
2022-10-31T02:57:41.331Z,42.6
2022-10-31T03:02:43.479Z,45.5
2022-10-31T03:07:46.229Z,47
2022-10-31T03:12:48.707Z,46.1
2022-10-31T03:17:51.213Z,47
2022-10-31T03:22:53.219Z,46.5
2022-10-31T03:27:55.183Z,45.7
2022-10-31T03:32:58.816Z,45.9
2022-10-31T03:38:04.136Z,46.5
2022-10-31T03:43:09.738Z,42.1
2022-10-31T03:48:12.245Z,45.9
2022-10-31T03:53:16.710Z,44.9
2022-10-31T04:03:22.530Z,42.6
2022-10-31T04:08:24.440Z,43.3
2022-10-31T04:13:26.533Z,40.9
2022-10-31T04:18:28.548Z,39.4
2022-10-31T04:23:30.470Z,39.5
2022-10-31T04:28:32.892Z,36.9
2022-10-31T04:33:33.494Z,34.5
2022-10-31T04:38:35.682Z,39.3
2022-10-31T04:43:38.016Z,45.1
2022-10-31T04:48:39.978Z,45.3
2022-10-31T04:53:41.981Z,43.2
2022-10-31T04:58:44.178Z,43
2022-10-31T05:03:46.372Z,44.3
2022-10-31T05:08:48.335Z,41.3
2022-10-31T05:13:50.657Z,45.2
2022-10-31T05:18:52.829Z,43
2022-10-31T05:23:55.248Z,42.9
2022-10-31T05:28:57.419Z,41
2022-10-31T05:33:59.368Z,43.3
2022-10-31T05:39:01.279Z,46.6
2022-10-31T05:44:03.648Z,45.2
2022-10-31T05:49:05.584Z,41.6
2022-10-31T05:54:10.733Z,40.9
2022-10-31T05:59:17.193Z,41.5
2022-10-31T06:04:19.878Z,40.4
2022-10-31T06:09:22.013Z,39.9
2022-10-31T06:14:23.875Z,43.1
2022-10-31T06:19:26.116Z,42.5
2022-10-31T06:24:28.020Z,41
2022-10-31T06:29:30.125Z,39.4
2022-10-31T06:34:33.073Z,38.6
2022-10-31T06:39:35.169Z,37.1
2022-10-31T06:44:37.115Z,33.8
2022-10-31T06:49:38.998Z,31.1
2022-10-31T06:54:40.844Z,33.3
2022-10-31T06:59:42.692Z,35.2
2022-10-31T07:04:47.713Z,34.3
2022-10-31T07:09:52.277Z,29.6
2022-10-31T07:14:56.306Z,32.6
2022-10-31T07:19:58.450Z,29.2
2022-10-31T07:25:00.329Z,22.6
2022-10-31T07:30:02.404Z,23.5
2022-10-31T07:35:04.347Z,24.1
2022-10-31T07:40:06.301Z,20.8
2022-10-31T07:45:08.326Z,23
2022-10-31T07:50:10.268Z,25.5
2022-10-31T07:55:12.387Z,24
2022-10-31T08:00:16.135Z,24.4
2022-10-31T08:05:18.721Z,23.9
2022-10-31T08:10:20.776Z,24.6
2022-10-31T08:15:24.097Z,26
2022-10-31T08:20:26.163Z,26.8
2022-10-31T08:25:29.814Z,25.7
2022-10-31T08:30:30.095Z,27.8
2022-10-31T08:35:32.289Z,30.7
2022-10-31T08:40:34.833Z,23.5
2022-10-31T08:45:37.023Z,24.4
2022-10-31T08:50:39.147Z,23.6
2022-10-31T08:55:41.318Z,22.8
2022-10-31T09:00:44.144Z,23
2022-10-31T09:05:47.050Z,19.4
2022-10-31T09:10:49.329Z,17.2
2022-10-31T09:15:51.276Z,15.7
2022-10-31T09:20:53.114Z,14.3
2022-10-31T09:25:55.028Z,16.1
2022-10-31T09:30:57.039Z,16.1
2022-10-31T09:35:59.119Z,16.2
2022-10-31T09:41:00.998Z,15.2
2022-10-31T09:46:03.157Z,15.8
2022-10-31T09:51:05.455Z,17.6
2022-10-31T09:56:07.478Z,16.8
2022-10-31T10:01:09.539Z,16.2
2022-10-31T10:06:12.895Z,17.5
2022-10-31T10:11:14.827Z,16
2022-10-31T10:16:16.758Z,14.3
2022-10-31T10:21:18.721Z,17.7
2022-10-31T10:26:21.119Z,17.4
2022-10-31T10:31:25.895Z,15.9
2022-10-31T10:36:28.416Z,18
2022-10-31T10:41:34.068Z,15.1
2022-10-31T10:46:36.747Z,17.6
2022-10-31T10:52:07.256Z,18
2022-10-31T10:56:39.727Z,15.5
2022-10-31T11:01:41.648Z,16.4
2022-10-31T11:06:43.805Z,32.4
2022-10-31T11:11:45.736Z,15.2
2022-10-31T11:16:47.748Z,14.9
2022-10-31T11:21:52.713Z,13.2
2022-10-31T11:26:57.221Z,14.9
2022-10-31T11:31:59.988Z,17
2022-10-31T11:37:02.058Z,13.3
2022-10-31T11:42:08.676Z,13.6
2022-10-31T11:47:11.400Z,13.8
2022-10-31T11:52:13.406Z,13.6
2022-10-31T11:57:17.717Z,14.9
2022-10-31T12:02:19.931Z,34.5
2022-10-31T12:07:22.234Z,17.7
2022-10-31T12:12:24.205Z,17.4
2022-10-31T12:17:26.082Z,17.1
2022-10-31T12:22:28.002Z,15.5
2022-10-31T12:27:30.347Z,16.1
2022-10-31T12:32:32.566Z,16.5
2022-10-31T12:37:34.620Z,29.2
2022-10-31T12:42:36.736Z,16.6
2022-10-31T12:47:38.801Z,18.9
2022-10-31T12:52:40.853Z,17.7
2022-10-31T12:57:43.288Z,17.7
2022-10-31T13:02:46.269Z,66.3
2022-10-31T13:07:48.420Z,17.6
2022-10-31T13:12:50.643Z,16.7
2022-10-31T13:17:53.010Z,17.4
2022-10-31T13:22:55.236Z,16.8
2022-10-31T13:28:00.320Z,19.6
2022-10-31T13:33:02.985Z,22.5
2022-10-31T13:38:06.163Z,64
2022-10-31T13:43:08.365Z,22
2022-10-31T13:48:10.443Z,20.5
2022-10-31T13:53:16.755Z,19
2022-10-31T13:58:19.036Z,18.3
2022-10-31T14:03:36.080Z,19.8
2022-10-31T14:08:25.622Z,20.4
2022-10-31T14:13:27.801Z,18.9
2022-10-31T14:18:29.951Z,21.9
2022-10-31T14:23:32.129Z,21.3
2022-10-31T14:28:35.152Z,24
2022-10-31T14:33:37.257Z,22.8
2022-10-31T14:38:42.005Z,25.6
2022-10-31T14:43:44.074Z,27
2022-10-31T14:48:46.126Z,28.2
2022-10-31T14:53:49.176Z,26.5
2022-10-31T14:58:51.668Z,28.2
2022-10-31T15:04:18.067Z,27.6
2022-10-31T15:08:56.924Z,25.4
2022-10-31T15:14:00.498Z,23.8
2022-10-31T15:19:03.121Z,26.1
2022-10-31T15:24:14.229Z,26.7
2022-10-31T15:29:06.396Z,26.9
2022-10-31T15:34:08.355Z,27.7
2022-10-31T15:39:11.108Z,28.3
2022-10-31T15:44:13.821Z,30
2022-10-31T15:49:16.573Z,33.1
2022-10-31T15:54:18.706Z,32.8
2022-10-31T15:59:20.625Z,28.6
2022-10-31T16:04:22.534Z,28.6
2022-10-31T16:09:24.472Z,30.7
2022-10-31T16:14:26.460Z,31.5
2022-10-31T16:19:28.519Z,33.3
2022-10-31T16:24:30.754Z,35.6
2022-10-31T16:29:33.174Z,38.9
2022-10-31T16:34:35.130Z,40.8
2022-10-31T16:39:37.631Z,38.4
2022-10-31T16:44:40.753Z,41.1
2022-10-31T16:49:44.003Z,45.7
2022-10-31T16:54:46.029Z,46.3
2022-10-31T16:59:48.026Z,44.2
2022-10-31T17:04:52.304Z,45.1
2022-10-31T17:09:58.617Z,47
2022-10-31T17:15:00.771Z,41.8
2022-10-31T17:20:03.242Z,41.8
2022-10-31T17:25:05.307Z,49.5
2022-10-31T17:30:10.788Z,51
2022-10-31T17:35:13.059Z,57.6
2022-10-31T17:40:15.060Z,76
2022-10-31T17:45:21.487Z,61
2022-10-31T17:50:25.265Z,58.6
2022-10-31T17:55:27.452Z,57.8
2022-10-31T18:00:28.842Z,59.9
2022-10-31T18:05:31.273Z,58.3
2022-10-31T18:10:33.184Z,59.7
2022-10-31T18:15:35.134Z,61.6
2022-10-31T18:20:40.075Z,62.7
2022-10-31T18:25:41.914Z,58.5
2022-10-31T18:30:45.321Z,54.4
2022-10-31T18:35:47.690Z,52
2022-10-31T18:40:49.895Z,47.7
2022-10-31T18:45:55.181Z,50.4
2022-10-31T18:50:59.703Z,49.9
2022-10-31T18:56:01.835Z,52
2022-10-31T19:01:03.757Z,51.3
2022-10-31T19:06:06.047Z,52.8
2022-10-31T19:11:08.128Z,54.1
2022-10-31T19:16:10.093Z,54.5
2022-10-31T19:21:12.051Z,55.4
2022-10-31T19:26:14.019Z,49.6
2022-10-31T19:31:16.077Z,50
2022-10-31T19:36:17.948Z,46.6
2022-10-31T19:41:20.030Z,47.2
2022-10-31T19:46:22.610Z,55
2022-10-31T19:51:24.880Z,53.8
2022-10-31T19:56:26.949Z,54.6
2022-10-31T20:01:28.920Z,54.1
2022-10-31T20:06:31.228Z,58
2022-10-31T20:11:33.728Z,58.1
2022-10-31T20:16:35.711Z,56.9
2022-10-31T20:21:38.987Z,56.4
2022-10-31T20:26:41.520Z,58.5
2022-10-31T20:31:43.628Z,57.5
2022-10-31T20:37:23.162Z,61.4
2022-10-31T20:42:26.273Z,56.5
2022-10-31T20:47:28.249Z,57.3
2022-10-31T20:52:30.435Z,55.3
2022-10-31T20:57:32.531Z,56.7
2022-10-31T21:02:34.567Z,55.3
2022-10-31T21:07:37.066Z,53.5
2022-10-31T21:12:39.227Z,60
2022-10-31T21:17:41.444Z,62
2022-10-31T21:22:43.404Z,58.5
2022-10-31T21:27:45.320Z,56.7
2022-10-31T21:32:47.167Z,55.2
2022-10-31T21:37:48.111Z,52
2022-10-31T21:42:50.085Z,53
2022-10-31T21:47:52.121Z,50.2
2022-10-31T21:52:54.277Z,51.5
2022-10-31T21:57:56.269Z,47.4
2022-10-31T22:02:58.435Z,44.7
2022-10-31T22:08:00.906Z,51.3
2022-10-31T22:13:04.501Z,50.1
2022-10-31T22:18:06.771Z,49.1
2022-10-31T22:23:08.859Z,55
2022-10-31T22:28:11.992Z,53.5
2022-10-31T22:33:14.225Z,49.2
2022-10-31T22:38:16.136Z,45.7
2022-10-31T22:43:19.030Z,48
2022-10-31T22:48:21.005Z,48.8
2022-10-31T22:53:23.564Z,51.5
2022-10-31T22:58:25.451Z,54.5
2022-10-31T23:03:27.346Z,58.2
2022-10-31T23:08:30.402Z,55.7
2022-10-31T23:13:32.329Z,58.5
2022-10-31T23:18:49.457Z,61.9
2022-10-31T23:23:42.599Z,66.6
2022-10-31T23:28:44.492Z,62.1
2022-10-31T23:33:46.404Z,60
2022-10-31T23:38:48.275Z,67.8
2022-10-31T23:43:50.161Z,64.2
2022-10-31T23:48:52.286Z,58
2022-10-31T23:53:54.453Z,61.6
2022-10-31T23:58:56.463Z,52.4
